createdAt,value
2023-04-01T00:01:03.234Z,9.21
2023-04-01T00:03:30.575Z,9.20
2023-04-01T00:05:59.554Z,9.17
2023-04-01T00:08:27.212Z,9.20
2023-04-01T00:10:54.012Z,9.19
2023-04-01T00:13:21.057Z,9.17
2023-04-01T00:15:49.470Z,9.14
2023-04-01T00:18:16.472Z,9.13
2023-04-01T00:20:51.391Z,9.13
2023-04-01T00:23:19.982Z,9.11
2023-04-01T00:25:48.766Z,9.13
2023-04-01T00:28:19.804Z,9.11
2023-04-01T00:30:46.788Z,9.07
2023-04-01T00:33:13.402Z,9.11
2023-04-01T00:35:41.364Z,9.06
2023-04-01T00:38:07.762Z,9.11
2023-04-01T00:40:37.337Z,9.10
2023-04-01T00:43:10.799Z,9.11
2023-04-01T00:45:40.434Z,9.07
2023-04-01T00:48:16.972Z,9.05
2023-04-01T00:50:48.602Z,9.09
2023-04-01T00:53:17.089Z,9.14
2023-04-01T00:55:51.075Z,9.11
2023-04-01T00:58:21.251Z,9.07
2023-04-01T01:00:49.850Z,8.98
2023-04-01T01:03:16.807Z,9.04
2023-04-01T01:06:08.626Z,9.00
2023-04-01T01:08:53.295Z,9.00
2023-04-01T01:11:33.625Z,9.03
2023-04-01T01:14:27.857Z,9.05
2023-04-01T01:17:16.514Z,8.99
2023-04-01T01:20:25.397Z,9.00
2023-04-01T01:23:08.375Z,8.99
2023-04-01T01:26:07.016Z,8.99
2023-04-01T01:28:58.020Z,9.06
2023-04-01T01:31:37.568Z,9.02
2023-04-01T01:34:22.895Z,9.01
2023-04-01T01:36:57.349Z,8.97
2023-04-01T01:39:28.812Z,8.99
2023-04-01T01:41:58.278Z,8.97
2023-04-01T01:44:27.592Z,8.95
2023-04-01T01:46:54.061Z,8.94
2023-04-01T01:49:21.048Z,8.94
2023-04-01T01:51:48.981Z,8.96
2023-04-01T01:54:17.458Z,9.00
2023-04-01T01:56:48.443Z,9.00
2023-04-01T01:59:17.012Z,8.94
2023-04-01T02:01:49.482Z,8.97
2023-04-01T02:04:18.121Z,8.94
2023-04-01T02:06:54.622Z,8.89
2023-04-01T02:09:21.400Z,9.00
2023-04-01T02:11:53.068Z,9.00
2023-04-01T02:14:26.951Z,8.96
2023-04-01T02:16:56.767Z,8.88
2023-04-01T02:19:30.426Z,8.86
2023-04-01T02:22:00.502Z,8.91
2023-04-01T02:24:30.928Z,8.92
2023-04-01T02:26:57.344Z,8.94
2023-04-01T02:29:28.803Z,8.95
2023-04-01T02:31:55.897Z,8.88
2023-04-01T02:34:23.787Z,8.94
2023-04-01T02:36:51.353Z,8.92
2023-04-01T02:39:17.986Z,8.93
2023-04-01T02:41:46.212Z,8.90
2023-04-01T02:44:14.431Z,8.92
2023-04-01T02:46:41.504Z,8.91
2023-04-01T02:49:08.230Z,8.91
2023-04-01T02:51:35.015Z,8.92
2023-04-01T02:54:01.851Z,8.95
2023-04-01T02:56:28.974Z,8.89
2023-04-01T02:58:55.559Z,8.93
2023-04-01T03:01:22.379Z,8.91
2023-04-01T03:03:48.929Z,8.96
2023-04-01T03:06:16.747Z,8.92
2023-04-01T03:08:43.448Z,8.93
2023-04-01T03:11:11.236Z,8.85
2023-04-01T03:13:38.000Z,8.93
2023-04-01T03:16:04.787Z,8.90
2023-04-01T03:18:31.230Z,8.92
2023-04-01T03:20:57.806Z,8.90
2023-04-01T03:23:25.158Z,8.90
2023-04-01T03:25:51.871Z,8.89
2023-04-01T03:28:18.367Z,8.91
2023-04-01T03:30:44.852Z,8.91
2023-04-01T03:33:11.496Z,8.92
2023-04-01T03:35:37.910Z,8.89
2023-04-01T03:38:04.443Z,8.86
2023-04-01T03:40:30.974Z,8.83
2023-04-01T03:42:57.493Z,8.91
2023-04-01T03:45:24.008Z,8.94
2023-04-01T03:47:50.581Z,8.97
2023-04-01T03:50:17.101Z,8.99
2023-04-01T03:52:43.477Z,9.03
2023-04-01T03:55:09.883Z,9.05
2023-04-01T03:57:38.658Z,9.03
2023-04-01T04:00:14.903Z,9.10
2023-04-01T04:02:43.668Z,9.11
2023-04-01T04:05:14.149Z,9.05
2023-04-01T04:07:40.646Z,9.12
2023-04-01T04:10:08.815Z,9.14
2023-04-01T04:12:35.481Z,9.18
2023-04-01T04:15:02.137Z,9.18
2023-04-01T04:17:28.530Z,9.12
2023-04-01T04:19:55.095Z,9.16
2023-04-01T04:22:21.848Z,9.12
2023-04-01T04:24:48.206Z,9.10
2023-04-01T04:27:14.590Z,9.06
2023-04-01T04:30:01.334Z,9.04
2023-04-01T04:32:29.331Z,9.07
2023-04-01T04:34:56.489Z,9.13
2023-04-01T04:37:22.849Z,9.06
2023-04-01T04:39:49.416Z,9.12
2023-04-01T04:42:16.175Z,9.11
2023-04-01T04:44:42.623Z,9.22
2023-04-01T04:47:09.076Z,9.16
2023-04-01T04:49:36.387Z,9.06
2023-04-01T04:52:07.398Z,9.06
2023-04-01T04:54:33.751Z,9.00
2023-04-01T04:57:02.043Z,9.04
2023-04-01T04:59:32.743Z,9.10
2023-04-01T05:02:05.197Z,9.10
2023-04-01T05:04:36.082Z,9.04
2023-04-01T05:07:02.504Z,8.99
2023-04-01T05:09:29.491Z,9.13
2023-04-01T05:11:56.106Z,9.14
2023-04-01T05:14:24.156Z,9.15
2023-04-01T05:16:59.690Z,9.12
2023-04-01T05:19:26.225Z,9.08
2023-04-01T05:21:53.815Z,9.11
2023-04-01T05:24:20.314Z,9.12
2023-04-01T05:26:47.243Z,9.09
2023-04-01T05:29:13.612Z,9.10
2023-04-01T05:31:41.194Z,9.11
2023-04-01T05:34:07.976Z,9.11
2023-04-01T05:36:35.118Z,9.05
2023-04-01T05:39:01.458Z,8.97
2023-04-01T05:41:28.423Z,9.00
2023-04-01T05:43:55.013Z,8.97
2023-04-01T05:46:47.573Z,9.04
2023-04-01T05:49:27.682Z,9.06
2023-04-01T05:51:55.832Z,9.08
2023-04-01T05:54:22.288Z,9.07
2023-04-01T05:56:49.001Z,9.01
2023-04-01T05:59:16.129Z,9.04
2023-04-01T06:01:42.618Z,9.05
2023-04-01T06:04:14.928Z,9.11
2023-04-01T06:06:41.328Z,9.06
2023-04-01T06:09:17.158Z,9.10
2023-04-01T06:12:01.681Z,9.15
2023-04-01T06:14:42.703Z,9.16
2023-04-01T06:17:40.954Z,9.18
2023-04-01T06:20:07.585Z,9.16
2023-04-01T06:22:58.513Z,9.15
2023-04-01T06:25:32.906Z,9.10
2023-04-01T06:28:08.468Z,9.12
2023-04-01T06:30:44.595Z,9.07
2023-04-01T06:33:57.000Z,9.10
2023-04-01T06:36:38.787Z,9.03
2023-04-01T06:39:23.468Z,9.08
2023-04-01T06:42:10.230Z,9.05
2023-04-01T06:44:51.112Z,9.10
2023-04-01T06:48:04.994Z,9.10
2023-04-01T06:51:00.782Z,9.16
2023-04-01T06:54:15.760Z,9.13
2023-04-01T06:57:06.624Z,9.15
2023-04-01T06:59:36.069Z,9.23
2023-04-01T07:02:16.346Z,9.19
2023-04-01T07:04:49.381Z,9.26
2023-04-01T07:07:35.571Z,9.25
2023-04-01T07:10:15.372Z,9.20
2023-04-01T07:13:16.858Z,9.16
2023-04-01T07:16:09.508Z,9.21
2023-04-01T07:18:49.292Z,9.16
2023-04-01T07:21:26.315Z,9.14
2023-04-01T07:24:01.339Z,9.14
2023-04-01T07:26:33.815Z,9.18
2023-04-01T07:29:13.214Z,9.16
2023-04-01T07:32:07.885Z,9.23
2023-04-01T07:34:57.983Z,9.23
2023-04-01T07:37:38.808Z,9.19
2023-04-01T07:40:24.307Z,9.17
2023-04-01T07:43:19.124Z,9.21
2023-04-01T07:46:01.662Z,9.19
2023-04-01T07:48:39.486Z,9.17
2023-04-01T07:51:27.708Z,9.08
2023-04-01T07:54:09.184Z,9.12
2023-04-01T07:56:49.684Z,9.14
2023-04-01T07:59:40.517Z,9.11
2023-04-01T08:02:41.346Z,9.11
2023-04-01T08:05:19.874Z,9.07
2023-04-01T08:08:08.275Z,9.07
2023-04-01T08:11:03.844Z,9.04
2023-04-01T08:14:18.592Z,9.16
2023-04-01T08:17:08.594Z,9.15
2023-04-01T08:20:02.746Z,9.14
2023-04-01T08:22:41.447Z,9.15
2023-04-01T08:25:22.796Z,9.12
2023-04-01T08:28:21.779Z,9.15
2023-04-01T08:30:54.000Z,9.12
2023-04-01T08:33:23.142Z,9.16
2023-04-01T08:36:00.665Z,9.16
2023-04-01T08:38:37.060Z,9.10
2023-04-01T08:41:31.509Z,9.06
2023-04-01T08:44:31.927Z,9.06
2023-04-01T08:47:10.735Z,9.05
2023-04-01T08:49:55.941Z,9.12
2023-04-01T08:52:59.584Z,9.15
2023-04-01T08:55:32.948Z,9.16
2023-04-01T08:58:33.342Z,9.16
2023-04-01T09:01:38.346Z,9.15
2023-04-01T09:04:09.120Z,9.16
2023-04-01T09:06:51.757Z,9.18
2023-04-01T09:09:31.096Z,9.17
2023-04-01T09:12:16.350Z,9.21
2023-04-01T09:15:10.690Z,9.25
2023-04-01T09:17:50.303Z,9.27
2023-04-01T09:20:42.797Z,9.24
2023-04-01T09:23:30.222Z,9.31
2023-04-01T09:26:11.789Z,9.32
2023-04-01T09:28:56.879Z,9.34
2023-04-01T09:31:52.372Z,9.40
2023-04-01T09:34:56.005Z,9.44
2023-04-01T09:37:52.554Z,9.49
2023-04-01T09:40:53.806Z,9.43
2023-04-01T09:43:59.039Z,9.47
2023-04-01T09:46:53.981Z,9.43
2023-04-01T09:49:32.854Z,9.53
2023-04-01T09:52:28.722Z,9.50
2023-04-01T09:55:33.946Z,9.48
2023-04-01T09:58:32.415Z,9.55
2023-04-01T10:01:40.347Z,9.51
2023-04-01T10:04:34.402Z,9.54
2023-04-01T10:07:30.379Z,9.55
2023-04-01T10:10:24.003Z,9.59
2023-04-01T10:13:14.719Z,9.53
2023-04-01T10:16:03.595Z,9.60
2023-04-01T10:18:42.537Z,9.67
2023-04-01T10:21:46.590Z,9.64
2023-04-01T10:24:12.985Z,9.65
2023-04-01T10:27:02.436Z,9.76
2023-04-01T10:30:02.660Z,9.70
2023-04-01T10:32:56.894Z,9.63
2023-04-01T10:36:01.378Z,9.62
2023-04-01T10:39:04.027Z,9.65
2023-04-01T10:41:48.657Z,9.65
2023-04-01T10:45:02.695Z,9.65
2023-04-01T10:48:13.090Z,9.59
2023-04-01T10:50:49.017Z,9.70
2023-04-01T10:53:40.306Z,9.69
2023-04-01T10:56:39.984Z,9.70
2023-04-01T10:59:40.258Z,9.71
2023-04-01T11:02:48.022Z,9.71
2023-04-01T11:05:52.161Z,9.71
2023-04-01T11:08:47.273Z,9.70
2023-04-01T11:11:29.295Z,9.68
2023-04-01T11:14:17.725Z,9.67
2023-04-01T11:16:44.091Z,9.73
2023-04-01T11:19:48.001Z,9.81
2023-04-01T11:22:28.098Z,9.81
2023-04-01T11:25:33.193Z,9.90
2023-04-01T11:28:28.629Z,9.94
2023-04-01T11:31:06.701Z,9.97
2023-04-01T11:33:53.089Z,9.96
2023-04-01T11:36:34.957Z,9.95
2023-04-01T11:39:30.408Z,9.98
2023-04-01T11:42:21.072Z,9.95
2023-04-01T11:45:21.179Z,9.91
2023-04-01T11:48:03.956Z,9.92
2023-04-01T11:51:00.776Z,9.88
2023-04-01T11:53:49.529Z,9.79
2023-04-01T11:56:54.375Z,9.86
2023-04-01T11:59:49.776Z,9.87
2023-04-01T12:02:34.790Z,9.85
2023-04-01T12:05:19.865Z,9.86
2023-04-01T12:07:55.570Z,9.85
2023-04-01T12:10:32.760Z,9.86
2023-04-01T12:13:28.835Z,9.85
2023-04-01T12:16:29.375Z,9.86
2023-04-01T12:19:27.191Z,9.86
2023-04-01T12:22:32.574Z,9.93
2023-04-01T12:25:24.030Z,10.00
2023-04-01T12:28:01.317Z,10.04
2023-04-01T12:30:49.639Z,10.08
2023-04-01T12:33:19.083Z,10.10
2023-04-01T12:36:11.117Z,10.10
2023-04-01T12:39:09.056Z,10.06
2023-04-01T12:41:52.976Z,10.13
2023-04-01T12:44:40.805Z,10.11
2023-04-01T12:47:32.746Z,10.01
2023-04-01T12:50:14.424Z,10.04
2023-04-01T12:53:04.669Z,9.97
2023-04-01T12:55:40.585Z,10.00
2023-04-01T12:58:39.312Z,10.00
2023-04-01T13:01:23.877Z,9.99
2023-04-01T13:04:06.640Z,9.96
2023-04-01T13:07:01.306Z,9.96
2023-04-01T13:09:39.525Z,9.92
2023-04-01T13:12:48.950Z,9.97
2023-04-01T13:15:36.749Z,9.98
2023-04-01T13:18:15.414Z,10.02
2023-04-01T13:21:03.613Z,10.04
2023-04-01T13:23:39.198Z,10.08
2023-04-01T13:26:28.257Z,10.17
2023-04-01T13:29:18.564Z,10.12
2023-04-01T13:32:03.204Z,10.10
2023-04-01T13:34:41.015Z,10.05
2023-04-01T13:37:23.936Z,10.04
2023-04-01T13:40:21.337Z,10.00
2023-04-01T13:42:58.437Z,9.97
2023-04-01T13:45:50.212Z,9.92
2023-04-01T13:48:28.253Z,9.91
2023-04-01T13:51:09.488Z,9.88
2023-04-01T13:53:52.420Z,9.95
2023-04-01T13:56:49.864Z,9.97
2023-04-01T14:00:11.774Z,10.02
2023-04-01T14:03:08.285Z,9.96
2023-04-01T14:05:55.613Z,9.95
2023-04-01T14:08:48.103Z,10.05
2023-04-01T14:11:17.460Z,10.11
2023-04-01T14:13:57.106Z,10.12
2023-04-01T14:17:05.904Z,10.13
2023-04-01T14:19:48.277Z,10.15
2023-04-01T14:22:21.125Z,10.14
2023-04-01T14:25:26.128Z,10.13
2023-04-01T14:28:04.301Z,10.16
2023-04-01T14:30:53.741Z,10.16
2023-04-01T14:33:43.989Z,10.16
2023-04-01T14:36:39.227Z,10.14
2023-04-01T14:39:20.024Z,10.16
2023-04-01T14:42:22.044Z,10.12
2023-04-01T14:45:26.536Z,10.10
2023-04-01T14:47:57.978Z,10.06
2023-04-01T14:50:28.566Z,10.10
2023-04-01T14:53:23.928Z,10.07
2023-04-01T14:55:57.265Z,10.10
2023-04-01T14:58:27.115Z,10.12
2023-04-01T15:01:15.566Z,10.09
2023-04-01T15:04:09.644Z,10.14
2023-04-01T15:07:12.342Z,10.19
2023-04-01T15:10:15.165Z,10.22
2023-04-01T15:13:06.464Z,10.24
2023-04-01T15:15:59.685Z,10.20
2023-04-01T15:18:49.229Z,10.20
2023-04-01T15:21:28.430Z,10.18
2023-04-01T15:24:08.872Z,10.21
2023-04-01T15:26:59.860Z,10.17
2023-04-01T15:29:34.231Z,10.21
2023-04-01T15:32:18.684Z,10.23
2023-04-01T15:35:08.786Z,10.26
2023-04-01T15:38:06.539Z,10.20
2023-04-01T15:40:36.176Z,10.28
2023-04-01T15:43:27.452Z,10.27
2023-04-01T15:46:14.842Z,10.18
2023-04-01T15:48:51.806Z,10.19
2023-04-01T15:51:18.878Z,10.20
2023-04-01T15:53:57.628Z,10.18
2023-04-01T15:57:06.931Z,10.17
2023-04-01T15:59:51.591Z,10.18
2023-04-01T16:02:33.920Z,10.19
2023-04-01T16:05:06.527Z,10.14
2023-04-01T16:07:48.093Z,10.16
2023-04-01T16:10:29.850Z,10.16
2023-04-01T16:13:34.242Z,10.04
2023-04-01T16:16:09.651Z,9.96
2023-04-01T16:19:08.195Z,9.94
2023-04-01T16:21:44.162Z,9.97
2023-04-01T16:24:33.672Z,9.94
2023-04-01T16:27:11.448Z,9.90
2023-04-01T16:30:03.980Z,9.86
2023-04-01T16:32:54.545Z,9.83
2023-04-01T16:35:42.347Z,9.83
2023-04-01T16:38:26.113Z,9.83
2023-04-01T16:41:15.588Z,9.86
2023-04-01T16:43:47.896Z,9.82
2023-04-01T16:46:39.422Z,9.84
2023-04-01T16:49:11.749Z,9.85
2023-04-01T16:51:52.930Z,9.85
2023-04-01T16:54:21.979Z,9.84
2023-04-01T16:57:17.007Z,9.81
2023-04-01T17:00:04.375Z,9.78
2023-04-01T17:02:48.163Z,9.76
2023-04-01T17:05:14.588Z,9.73
2023-04-01T17:08:28.530Z,9.75
2023-04-01T17:11:06.927Z,9.71
2023-04-01T17:13:46.953Z,9.75
2023-04-01T17:16:26.097Z,9.73
2023-04-01T17:19:04.687Z,9.71
2023-04-01T17:21:47.834Z,9.71
2023-04-01T17:24:39.177Z,9.72
2023-04-01T17:27:23.452Z,9.79
2023-04-01T17:30:31.908Z,9.78
2023-04-01T17:33:18.950Z,9.79
2023-04-01T17:36:03.518Z,9.84
2023-04-01T17:38:43.598Z,9.79
2023-04-01T17:41:26.380Z,9.80
2023-04-01T17:44:34.822Z,9.79
2023-04-01T17:47:26.384Z,9.78
2023-04-01T17:49:58.865Z,9.77
2023-04-01T17:52:49.531Z,9.74
2023-04-01T17:55:18.818Z,9.72
2023-04-01T17:58:14.161Z,9.73
2023-04-01T18:01:09.317Z,9.68
2023-04-01T18:03:58.542Z,9.67
2023-04-01T18:06:41.490Z,9.70
2023-04-01T18:09:41.850Z,9.70
2023-04-01T18:12:41.805Z,9.72
2023-04-01T18:15:32.430Z,9.77
2023-04-01T18:18:10.784Z,9.72
2023-04-01T18:20:54.230Z,9.73
2023-04-01T18:23:33.085Z,9.74
2023-04-01T18:26:19.651Z,9.72
2023-04-01T18:29:04.956Z,9.74
2023-04-01T18:31:41.463Z,9.71
2023-04-01T18:34:41.587Z,9.76
2023-04-01T18:37:39.739Z,9.74
2023-04-01T18:40:27.249Z,9.80
2023-04-01T18:43:30.472Z,9.78
2023-04-01T18:46:17.795Z,9.88
2023-04-01T18:49:14.299Z,9.92
2023-04-01T18:51:58.492Z,9.93
2023-04-01T18:54:41.850Z,9.95
2023-04-01T18:57:20.887Z,9.99
2023-04-01T19:00:05.421Z,10.03
2023-04-01T19:02:49.666Z,9.87
2023-04-01T19:05:24.859Z,9.93
2023-04-01T19:07:56.877Z,9.96
2023-04-01T19:10:46.866Z,9.93
2023-04-01T19:13:24.039Z,9.94
2023-04-01T19:16:08.674Z,9.89
2023-04-01T19:18:49.929Z,9.76
2023-04-01T19:21:36.594Z,9.74
2023-04-01T19:24:38.205Z,9.76
2023-04-01T19:27:25.345Z,9.78
2023-04-01T19:30:10.446Z,9.71
2023-04-01T19:33:19.480Z,9.56
2023-04-01T19:36:06.978Z,9.55
2023-04-01T19:38:43.840Z,9.56
2023-04-01T19:41:24.237Z,9.54
2023-04-01T19:44:16.548Z,9.44
2023-04-01T19:46:55.384Z,9.35
2023-04-01T19:49:34.123Z,9.30
2023-04-01T19:52:22.493Z,9.28
2023-04-01T19:55:00.651Z,9.26
2023-04-01T19:57:48.709Z,9.24
2023-04-01T20:00:30.931Z,9.26
2023-04-01T20:03:29.116Z,9.23
2023-04-01T20:06:07.586Z,9.22
2023-04-01T20:08:46.721Z,9.13
2023-04-01T20:11:18.869Z,9.02
2023-04-01T20:14:06.974Z,8.96
2023-04-01T20:16:59.478Z,8.86
2023-04-01T20:19:40.255Z,8.79
2023-04-01T20:22:26.035Z,8.83
2023-04-01T20:24:53.857Z,8.76
2023-04-01T20:27:26.752Z,8.76
2023-04-01T20:30:14.816Z,8.68
2023-04-01T20:33:18.871Z,8.67
2023-04-01T20:36:01.374Z,8.68
2023-04-01T20:38:53.770Z,8.62
2023-04-01T20:42:01.345Z,8.55
2023-04-01T20:44:43.341Z,8.48
2023-04-01T20:47:28.205Z,8.42
2023-04-01T20:50:06.703Z,8.42
2023-04-01T20:52:42.440Z,8.39
2023-04-01T20:55:45.770Z,8.37
2023-04-01T20:58:43.889Z,8.37
2023-04-01T21:01:35.368Z,8.26
2023-04-01T21:04:19.395Z,8.21
2023-04-01T21:07:15.585Z,8.21
2023-04-01T21:09:56.720Z,8.13
2023-04-01T21:12:41.712Z,8.18
2023-04-01T21:15:31.588Z,8.12
2023-04-01T21:18:17.851Z,8.06
2023-04-01T21:21:00.778Z,7.91
2023-04-01T21:23:55.374Z,7.91
2023-04-01T21:26:40.181Z,7.79
2023-04-01T21:29:26.165Z,7.79
2023-04-01T21:32:11.182Z,7.78
2023-04-01T21:35:16.118Z,7.79
2023-04-01T21:37:53.489Z,7.78
2023-04-01T21:40:52.127Z,7.77
2023-04-01T21:44:06.913Z,7.74
2023-04-01T21:46:55.972Z,7.60
2023-04-01T21:49:40.265Z,7.46
2023-04-01T21:52:35.261Z,7.39
2023-04-01T21:55:35.407Z,7.37
2023-04-01T21:58:29.923Z,7.42
2023-04-01T22:01:07.999Z,7.37
2023-04-01T22:03:41.207Z,7.32
2023-04-01T22:07:01.089Z,7.21
2023-04-01T22:09:39.229Z,7.32
2023-04-01T22:12:19.029Z,7.23
2023-04-01T22:14:51.378Z,7.29
2023-04-01T22:17:37.669Z,7.28
2023-04-01T22:20:27.880Z,7.21
2023-04-01T22:23:28.267Z,7.21
2023-04-01T22:26:17.349Z,7.16
2023-04-01T22:28:56.047Z,7.10
2023-04-01T22:31:51.211Z,6.98
2023-04-01T22:34:36.537Z,6.96
2023-04-01T22:37:05.585Z,6.88
2023-04-01T22:39:37.964Z,6.86
2023-04-01T22:42:16.531Z,6.89
2023-04-01T22:45:04.242Z,6.79
2023-04-01T22:47:45.565Z,6.76
2023-04-01T22:50:22.946Z,6.71
2023-04-01T22:52:59.692Z,6.60
2023-04-01T22:55:33.958Z,6.68
2023-04-01T22:58:12.231Z,6.62
2023-04-01T23:00:44.098Z,6.51
2023-04-01T23:03:31.163Z,6.52
2023-04-01T23:06:00.403Z,6.48
2023-04-01T23:09:03.801Z,6.41
2023-04-01T23:11:45.544Z,6.50
2023-04-01T23:14:21.061Z,6.45
2023-04-01T23:16:58.031Z,6.44
2023-04-01T23:19:42.729Z,6.46
2023-04-01T23:22:22.456Z,6.44
2023-04-01T23:24:59.804Z,6.38
2023-04-01T23:27:29.241Z,6.32
2023-04-01T23:29:55.732Z,6.25
2023-04-01T23:32:27.145Z,6.32
2023-04-01T23:34:57.967Z,6.32
2023-04-01T23:37:25.466Z,6.11
2023-04-01T23:39:58.156Z,6.04
2023-04-01T23:42:28.334Z,6.05
2023-04-01T23:44:58.038Z,6.07
2023-04-01T23:47:34.606Z,6.11
2023-04-01T23:50:18.622Z,6.06
2023-04-01T23:52:49.368Z,6.13
2023-04-01T23:55:22.665Z,6.09
2023-04-01T23:58:17.660Z,6.07
